sensor_id;sensor_type;location;lat;lon;timestamp;pressure;altitude;pressure_sealevel;temperature;humidity
34674;BME280;20879;55.668;37.858;2023-02-03T00:01:09;99100.13;;;-1.51;90.59
34674;BME280;20879;55.668;37.858;2023-02-03T00:03:39;99091.69;;;-1.50;91.00
34674;BME280;20879;55.668;37.858;2023-02-03T00:06:08;99085.88;;;-1.46;91.09
34674;BME280;20879;55.668;37.858;2023-02-03T00:08:40;99096.25;;;-1.35;90.75
34674;BME280;20879;55.668;37.858;2023-02-03T00:11:09;99061.00;;;-1.61;91.01
34674;BME280;20879;55.668;37.858;2023-02-03T00:13:38;99018.66;;;-1.98;91.58
34674;BME280;20879;55.668;37.858;2023-02-03T00:16:18;99095.66;;;-1.61;91.62
34674;BME280;20879;55.668;37.858;2023-02-03T00:18:48;99080.50;;;-1.60;91.88
34674;BME280;20879;55.668;37.858;2023-02-03T00:21:17;99088.34;;;-1.49;91.72
34674;BME280;20879;55.668;37.858;2023-02-03T00:23:48;99085.19;;;-1.38;91.50
34674;BME280;20879;55.668;37.858;2023-02-03T00:26:18;99088.81;;;-1.29;91.32
34674;BME280;20879;55.668;37.858;2023-02-03T00:28:52;99084.72;;;-1.20;91.52
34674;BME280;20879;55.668;37.858;2023-02-03T00:31:23;99084.03;;;-1.13;91.50
34674;BME280;20879;55.668;37.858;2023-02-03T00:33:57;99085.81;;;-1.09;91.46
34674;BME280;20879;55.668;37.858;2023-02-03T00:36:32;99087.50;;;-1.11;91.00
34674;BME280;20879;55.668;37.858;2023-02-03T00:39:03;99091.84;;;-1.04;91.11
34674;BME280;20879;55.668;37.858;2023-02-03T00:41:38;99085.88;;;-1.08;91.37
34674;BME280;20879;55.668;37.858;2023-02-03T00:44:07;99053.91;;;-1.37;91.10
34674;BME280;20879;55.668;37.858;2023-02-03T00:46:41;99094.72;;;-1.28;91.68
34674;BME280;20879;55.668;37.858;2023-02-03T00:49:27;99088.03;;;-1.25;91.80
34674;BME280;20879;55.668;37.858;2023-02-03T00:51:56;99086.25;;;-1.29;92.00
34674;BME280;20879;55.668;37.858;2023-02-03T00:54:27;99088.25;;;-1.15;92.19
34674;BME280;20879;55.668;37.858;2023-02-03T00:57:05;99070.34;;;-1.21;91.73
34674;BME280;20879;55.668;37.858;2023-02-03T00:59:34;99088.25;;;-1.15;91.98
34674;BME280;20879;55.668;37.858;2023-02-03T01:02:10;99057.38;;;-1.32;91.90
34674;BME280;20879;55.668;37.858;2023-02-03T01:04:50;99089.03;;;-1.18;91.75
34674;BME280;20879;55.668;37.858;2023-02-03T01:07:19;99080.44;;;-1.23;91.73
34674;BME280;20879;55.668;37.858;2023-02-03T01:09:52;99074.34;;;-1.31;92.31
34674;BME280;20879;55.668;37.858;2023-02-03T01:12:28;99082.53;;;-1.45;92.32
34674;BME280;20879;55.668;37.858;2023-02-03T01:14:59;99085.00;;;-1.48;92.39
34674;BME280;20879;55.668;37.858;2023-02-03T01:17:30;99081.66;;;-1.44;92.96
34674;BME280;20879;55.668;37.858;2023-02-03T01:19:59;99064.66;;;-1.49;92.88
34674;BME280;20879;55.668;37.858;2023-02-03T01:22:31;99075.81;;;-1.41;92.80
34674;BME280;20879;55.668;37.858;2023-02-03T01:25:09;99057.88;;;-1.49;92.60
34674;BME280;20879;55.668;37.858;2023-02-03T01:27:38;99067.91;;;-1.15;93.70
34674;BME280;20879;55.668;37.858;2023-02-03T01:30:09;99063.50;;;-1.24;92.63
34674;BME280;20879;55.668;37.858;2023-02-03T01:32:38;99071.22;;;-1.19;92.19
34674;BME280;20879;55.668;37.858;2023-02-03T01:35:07;99071.34;;;-1.13;91.98
34674;BME280;20879;55.668;37.858;2023-02-03T01:37:37;99063.88;;;-1.06;91.95
34674;BME280;20879;55.668;37.858;2023-02-03T01:40:13;99079.38;;;-0.93;91.61
34674;BME280;20879;55.668;37.858;2023-02-03T01:42:48;99072.63;;;-0.93;91.50
34674;BME280;20879;55.668;37.858;2023-02-03T01:45:18;99069.22;;;-0.93;91.41
34674;BME280;20879;55.668;37.858;2023-02-03T01:48:02;99073.41;;;-0.95;91.42
34674;BME280;20879;55.668;37.858;2023-02-03T01:50:33;99033.19;;;-1.15;91.53
34674;BME280;20879;55.668;37.858;2023-02-03T01:53:09;99057.31;;;-0.96;90.95
34674;BME280;20879;55.668;37.858;2023-02-03T01:55:43;99072.63;;;-0.91;91.29
34674;BME280;20879;55.668;37.858;2023-02-03T01:58:18;99057.06;;;-1.08;91.05
34674;BME280;20879;55.668;37.858;2023-02-03T02:00:51;99060.63;;;-0.98;91.21
34674;BME280;20879;55.668;37.858;2023-02-03T02:03:25;99050.47;;;-0.98;91.02
34674;BME280;20879;55.668;37.858;2023-02-03T02:06:00;99064.44;;;-0.78;90.86
34674;BME280;20879;55.668;37.858;2023-02-03T02:08:32;99065.06;;;-0.88;90.70
34674;BME280;20879;55.668;37.858;2023-02-03T02:11:03;99064.97;;;-0.94;90.65
34674;BME280;20879;55.668;37.858;2023-02-03T02:13:34;99069.16;;;-0.96;90.60
34674;BME280;20879;55.668;37.858;2023-02-03T02:16:05;99067.75;;;-0.83;91.29
34674;BME280;20879;55.668;37.858;2023-02-03T02:18:53;99047.28;;;-0.88;90.93
34674;BME280;20879;55.668;37.858;2023-02-03T02:21:46;99056.00;;;-0.77;90.67
34674;BME280;20879;55.668;37.858;2023-02-03T02:24:42;99061.13;;;-0.74;90.43
34674;BME280;20879;55.668;37.858;2023-02-03T02:27:28;99021.63;;;-1.00;90.30
34674;BME280;20879;55.668;37.858;2023-02-03T02:30:28;99054.25;;;-0.78;90.76
34674;BME280;20879;55.668;37.858;2023-02-03T02:33:13;99056.00;;;-0.77;90.26
34674;BME280;20879;55.668;37.858;2023-02-03T02:35:55;99056.09;;;-0.71;90.33
34674;BME280;20879;55.668;37.858;2023-02-03T02:38:37;99057.91;;;-0.65;90.39
34674;BME280;20879;55.668;37.858;2023-02-03T02:41:19;99054.47;;;-0.68;90.18
34674;BME280;20879;55.668;37.858;2023-02-03T02:43:57;99057.94;;;-0.63;90.20
34674;BME280;20879;55.668;37.858;2023-02-03T02:46:36;99056.34;;;-0.60;90.38
34674;BME280;20879;55.668;37.858;2023-02-03T02:49:13;99043.50;;;-0.66;90.29
34674;BME280;20879;55.668;37.858;2023-02-03T02:51:45;99046.13;;;-0.61;90.08
34674;BME280;20879;55.668;37.858;2023-02-03T02:54:19;99040.09;;;-0.66;90.42
34674;BME280;20879;55.668;37.858;2023-02-03T02:56:52;99048.84;;;-0.52;90.31
34674;BME280;20879;55.668;37.858;2023-02-03T02:59:23;99035.16;;;-0.57;89.81
34674;BME280;20879;55.668;37.858;2023-02-03T03:01:58;99031.69;;;-0.62;90.08
34674;BME280;20879;55.668;37.858;2023-02-03T03:04:31;99037.69;;;-0.57;89.70
34674;BME280;20879;55.668;37.858;2023-02-03T03:07:05;99045.41;;;-0.56;89.90
34674;BME280;20879;55.668;37.858;2023-02-03T03:09:40;99044.50;;;-0.58;89.78
34674;BME280;20879;55.668;37.858;2023-02-03T03:12:14;99049.59;;;-0.56;90.22
34674;BME280;20879;55.668;37.858;2023-02-03T03:14:47;99051.28;;;-0.58;90.40
34674;BME280;20879;55.668;37.858;2023-02-03T03:17:26;99020.31;;;-0.81;90.13
34674;BME280;20879;55.668;37.858;2023-02-03T03:20:06;99046.78;;;-0.72;90.66
34674;BME280;20879;55.668;37.858;2023-02-03T03:22:40;99047.59;;;-0.73;90.70
34674;BME280;20879;55.668;37.858;2023-02-03T03:25:15;99049.19;;;-0.78;90.74
34674;BME280;20879;55.668;37.858;2023-02-03T03:27:48;99050.88;;;-0.78;91.41
34674;BME280;20879;55.668;37.858;2023-02-03T03:30:22;99050.16;;;-0.71;91.36
34674;BME280;20879;55.668;37.858;2023-02-03T03:33:03;99051.00;;;-0.71;91.09
34674;BME280;20879;55.668;37.858;2023-02-03T03:35:43;99051.22;;;-0.61;90.87
34674;BME280;20879;55.668;37.858;2023-02-03T03:38:20;99052.84;;;-0.63;91.00
34674;BME280;20879;55.668;37.858;2023-02-03T03:40:56;99045.94;;;-0.71;91.01
34674;BME280;20879;55.668;37.858;2023-02-03T03:43:29;99052.91;;;-0.60;91.05
34674;BME280;20879;55.668;37.858;2023-02-03T03:46:02;99055.50;;;-0.57;90.86
34674;BME280;20879;55.668;37.858;2023-02-03T03:48:36;99052.91;;;-0.60;90.90
34674;BME280;20879;55.668;37.858;2023-02-03T03:51:18;99049.59;;;-0.56;91.11
34674;BME280;20879;55.668;37.858;2023-02-03T03:53:50;99052.97;;;-0.57;90.98
34674;BME280;20879;55.668;37.858;2023-02-03T03:56:28;99054.63;;;-0.59;91.01
34674;BME280;20879;55.668;37.858;2023-02-03T03:59:06;99044.28;;;-0.68;91.06
34674;BME280;20879;55.668;37.858;2023-02-03T04:01:37;99046.88;;;-0.67;91.38
34674;BME280;20879;55.668;37.858;2023-02-03T04:04:09;98998.06;;;-0.93;91.02
34674;BME280;20879;55.668;37.858;2023-02-03T04:06:40;99054.81;;;-0.48;91.52
34674;BME280;20879;55.668;37.858;2023-02-03T04:09:10;99046.88;;;-0.67;91.04
34674;BME280;20879;55.668;37.858;2023-02-03T04:11:39;99043.34;;;-0.74;91.10
34674;BME280;20879;55.668;37.858;2023-02-03T04:14:21;99058.66;;;-0.69;91.45
34674;BME280;20879;55.668;37.858;2023-02-03T04:16:50;99055.31;;;-0.68;91.49
34674;BME280;20879;55.668;37.858;2023-02-03T04:19:20;99061.34;;;-0.64;91.59
34674;BME280;20879;55.668;37.858;2023-02-03T04:21:51;99057.22;;;-0.56;91.93
34674;BME280;20879;55.668;37.858;2023-02-03T04:24:20;99054.78;;;-0.50;91.77
34674;BME280;20879;55.668;37.858;2023-02-03T04:26:49;99048.88;;;-0.50;91.41
34674;BME280;20879;55.668;37.858;2023-02-03T04:29:19;99030.84;;;-0.63;91.01
34674;BME280;20879;55.668;37.858;2023-02-03T04:31:48;99058.28;;;-0.45;91.85
34674;BME280;20879;55.668;37.858;2023-02-03T04:34:17;99063.28;;;-0.51;91.62
34674;BME280;20879;55.668;37.858;2023-02-03T04:36:58;99047.13;;;-0.51;91.72
34674;BME280;20879;55.668;37.858;2023-02-03T04:39:28;99055.63;;;-0.52;91.98
34674;BME280;20879;55.668;37.858;2023-02-03T04:41:57;99063.31;;;-0.48;91.50
34674;BME280;20879;55.668;37.858;2023-02-03T04:44:27;99057.50;;;-0.42;91.67
34674;BME280;20879;55.668;37.858;2023-02-03T04:47:04;99055.72;;;-0.46;92.03
34674;BME280;20879;55.668;37.858;2023-02-03T04:49:33;99050.63;;;-0.48;91.79
34674;BME280;20879;55.668;37.858;2023-02-03T04:52:05;99053.25;;;-0.42;92.14
34674;BME280;20879;55.668;37.858;2023-02-03T04:54:34;99022.34;;;-0.63;91.95
34674;BME280;20879;55.668;37.858;2023-02-03T04:57:04;99057.59;;;-0.38;91.62
34674;BME280;20879;55.668;37.858;2023-02-03T04:59:33;99038.81;;;-0.43;91.56
34674;BME280;20879;55.668;37.858;2023-02-03T05:02:02;99056.00;;;-0.29;91.75
34674;BME280;20879;55.668;37.858;2023-02-03T05:04:32;99053.47;;;-0.29;91.42
34674;BME280;20879;55.668;37.858;2023-02-03T05:07:01;99063.66;;;-0.29;91.51
34674;BME280;20879;55.668;37.858;2023-02-03T05:09:37;99055.03;;;-0.38;91.55
34674;BME280;20879;55.668;37.858;2023-02-03T05:12:07;99053.38;;;-0.36;91.72
34674;BME280;20879;55.668;37.858;2023-02-03T05:14:36;99054.28;;;-0.32;92.07
34674;BME280;20879;55.668;37.858;2023-02-03T05:17:05;99032.72;;;-0.52;91.75
34674;BME280;20879;55.668;37.858;2023-02-03T05:19:39;99050.41;;;-0.57;92.23
34674;BME280;20879;55.668;37.858;2023-02-03T05:22:14;99061.53;;;-0.54;92.53
34674;BME280;20879;55.668;37.858;2023-02-03T05:24:50;99057.25;;;-0.55;92.62
34674;BME280;20879;55.668;37.858;2023-02-03T05:27:19;99023.00;;;-0.74;92.67
34674;BME280;20879;55.668;37.858;2023-02-03T05:29:49;99053.09;;;-0.51;93.03
34674;BME280;20879;55.668;37.858;2023-02-03T05:32:23;99053.25;;;-0.42;92.87
34674;BME280;20879;55.668;37.858;2023-02-03T05:34:57;99060.22;;;-0.31;92.72
34674;BME280;20879;55.668;37.858;2023-02-03T05:37:32;99057.75;;;-0.28;92.61
34674;BME280;20879;55.668;37.858;2023-02-03T05:40:04;99041.56;;;-0.33;92.66
34674;BME280;20879;55.668;37.858;2023-02-03T05:42:47;99050.19;;;-0.24;92.36
34674;BME280;20879;55.668;37.858;2023-02-03T05:45:17;99057.88;;;-0.21;92.81
34674;BME280;20879;55.668;37.858;2023-02-03T05:47:57;99057.03;;;-0.21;92.52
34674;BME280;20879;55.668;37.858;2023-02-03T05:50:30;99003.81;;;-0.58;92.77
34674;BME280;20879;55.668;37.858;2023-02-03T05:53:08;99058.72;;;-0.22;92.85
34674;BME280;20879;55.668;37.858;2023-02-03T05:55:44;99063.06;;;-0.16;93.10
34674;BME280;20879;55.668;37.858;2023-02-03T05:58:14;99045.91;;;-0.28;92.49
34674;BME280;20879;55.668;37.858;2023-02-03T06:00:43;99067.88;;;-0.30;92.54
34674;BME280;20879;55.668;37.858;2023-02-03T06:03:13;99043.97;;;-0.38;92.92
34674;BME280;20879;55.668;37.858;2023-02-03T06:05:42;99064.69;;;-0.18;93.20
34674;BME280;20879;55.668;37.858;2023-02-03T06:08:11;99061.44;;;-0.11;93.24
34674;BME280;20879;55.668;37.858;2023-02-03T06:10:40;99045.25;;;-0.16;92.66
34674;BME280;20879;55.668;37.858;2023-02-03T06:13:17;99063.22;;;-0.05;92.61
34674;BME280;20879;55.668;37.858;2023-02-03T06:15:46;99064.13;;;-0.02;92.87
34674;BME280;20879;55.668;37.858;2023-02-03T06:18:15;99065.13;;;0.07;92.86
34674;BME280;20879;55.668;37.858;2023-02-03T06:23:26;99058.47;;;0.15;92.19
34674;BME280;20879;55.668;37.858;2023-02-03T06:25:55;99065.22;;;0.13;92.06
34674;BME280;20879;55.668;37.858;2023-02-03T06:28:27;99059.31;;;0.15;92.50
34674;BME280;20879;55.668;37.858;2023-02-03T06:31:05;99063.66;;;0.21;92.24
34674;BME280;20879;55.668;37.858;2023-02-03T06:33:34;99067.94;;;0.22;92.04
34674;BME280;20879;55.668;37.858;2023-02-03T06:36:04;99025.94;;;-0.03;92.25
34674;BME280;20879;55.668;37.858;2023-02-03T06:38:34;99062.81;;;0.21;92.25
34674;BME280;20879;55.668;37.858;2023-02-03T06:41:03;99059.63;;;0.34;92.41
34674;BME280;20879;55.668;37.858;2023-02-03T06:43:40;99055.50;;;0.44;92.36
34674;BME280;20879;55.668;37.858;2023-02-03T06:46:10;99067.34;;;0.39;91.86
34674;BME280;20879;55.668;37.858;2023-02-03T06:48:40;99061.41;;;0.40;92.14
34674;BME280;20879;55.668;37.858;2023-02-03T06:51:09;99059.88;;;0.51;92.26
34674;BME280;20879;55.668;37.858;2023-02-03T06:53:51;99053.91;;;0.50;91.50
34674;BME280;20879;55.668;37.858;2023-02-03T06:56:21;99051.34;;;0.49;91.84
34674;BME280;20879;55.668;37.858;2023-02-03T06:58:52;99065.88;;;0.55;91.99
34674;BME280;20879;55.668;37.858;2023-02-03T07:01:21;99044.69;;;0.57;91.64
34674;BME280;20879;55.668;37.858;2023-02-03T07:03:51;99063.38;;;0.59;91.21
34674;BME280;20879;55.668;37.858;2023-02-03T07:06:23;99064.34;;;0.66;91.50
34674;BME280;20879;55.668;37.858;2023-02-03T07:08:54;99069.47;;;0.69;91.13
34674;BME280;20879;55.668;37.858;2023-02-03T07:11:27;99071.91;;;0.61;90.97
34674;BME280;20879;55.668;37.858;2023-02-03T07:13:58;99066.06;;;0.68;91.52
34674;BME280;20879;55.668;37.858;2023-02-03T07:16:33;99065.31;;;0.76;91.47
34674;BME280;20879;55.668;37.858;2023-02-03T07:19:09;99062.56;;;0.60;91.22
34674;BME280;20879;55.668;37.858;2023-02-03T07:21:39;99063.47;;;0.65;91.57
34674;BME280;20879;55.668;37.858;2023-02-03T07:24:08;99065.28;;;0.73;91.71
34674;BME280;20879;55.668;37.858;2023-02-03T07:26:43;99068.84;;;0.84;91.62
34674;BME280;20879;55.668;37.858;2023-02-03T07:29:14;99056.97;;;0.87;91.47
34674;BME280;20879;55.668;37.858;2023-02-03T07:31:48;99063.00;;;0.91;91.08
34674;BME280;20879;55.668;37.858;2023-02-03T07:34:18;99001.97;;;0.41;91.10
34674;BME280;20879;55.668;37.858;2023-02-03T07:36:52;99065.56;;;0.94;90.88
34674;BME280;20879;55.668;37.858;2023-02-03T07:39:22;99047.56;;;0.83;90.81
34674;BME280;20879;55.668;37.858;2023-02-03T07:41:52;99039.91;;;0.82;90.82
34674;BME280;20879;55.668;37.858;2023-02-03T07:44:24;99065.75;;;1.10;91.02
34674;BME280;20879;55.668;37.858;2023-02-03T07:46:53;99059.94;;;1.21;90.46
34674;BME280;20879;55.668;37.858;2023-02-03T07:49:23;99057.47;;;1.26;90.57
34674;BME280;20879;55.668;37.858;2023-02-03T07:51:52;99047.19;;;1.20;90.23
34674;BME280;20879;55.668;37.858;2023-02-03T07:54:22;99058.47;;;1.40;89.97
34674;BME280;20879;55.668;37.858;2023-02-03T07:56:51;99052.69;;;1.54;89.43
34674;BME280;20879;55.668;37.858;2023-02-03T07:59:20;99045.91;;;1.59;89.21
34674;BME280;20879;55.668;37.858;2023-02-03T08:01:51;99045.94;;;1.62;89.14
34674;BME280;20879;55.668;37.858;2023-02-03T08:04:22;99046.91;;;1.72;88.39
34674;BME280;20879;55.668;37.858;2023-02-03T08:06:51;99030.66;;;1.65;88.50
34674;BME280;20879;55.668;37.858;2023-02-03T08:09:20;99049.56;;;1.86;88.51
34674;BME280;20879;55.668;37.858;2023-02-03T08:11:50;99045.34;;;1.88;87.89
34674;BME280;20879;55.668;37.858;2023-02-03T08:14:19;99037.72;;;1.91;87.70
34674;BME280;20879;55.668;37.858;2023-02-03T08:16:51;99050.56;;;2.02;86.94
34674;BME280;20879;55.668;37.858;2023-02-03T08:19:20;99050.50;;;1.96;87.24
34674;BME280;20879;55.668;37.858;2023-02-03T08:21:49;99054.63;;;1.81;86.87
34674;BME280;20879;55.668;37.858;2023-02-03T08:24:19;99049.38;;;1.64;86.78
34674;BME280;20879;55.668;37.858;2023-02-03T08:26:48;99045.00;;;1.52;87.36
34674;BME280;20879;55.668;37.858;2023-02-03T08:29:23;99050.00;;;1.43;87.17
34674;BME280;20879;55.668;37.858;2023-02-03T08:31:54;99045.69;;;1.37;87.48
34674;BME280;20879;55.668;37.858;2023-02-03T08:34:26;99053.28;;;1.34;87.59
34674;BME280;20879;55.668;37.858;2023-02-03T08:36:55;99042.25;;;1.35;87.55
34674;BME280;20879;55.668;37.858;2023-02-03T08:39:24;99044.78;;;1.34;87.57
34674;BME280;20879;55.668;37.858;2023-02-03T08:41:53;99009.72;;;1.14;88.07
34674;BME280;20879;55.668;37.858;2023-02-03T08:44:23;99049.81;;;1.25;87.94
34674;BME280;20879;55.668;37.858;2023-02-03T08:46:54;99024.09;;;1.08;88.36
34674;BME280;20879;55.668;37.858;2023-02-03T08:49:25;99043.09;;;1.34;88.33
34674;BME280;20879;55.668;37.858;2023-02-03T08:52:00;99038.13;;;1.44;88.33
34674;BME280;20879;55.668;37.858;2023-02-03T08:54:30;99033.84;;;1.43;88.29
34674;BME280;20879;55.668;37.858;2023-02-03T08:56:59;99039.06;;;1.55;87.75
34674;BME280;20879;55.668;37.858;2023-02-03T08:59:30;99042.56;;;1.63;87.33
34674;BME280;20879;55.668;37.858;2023-02-03T09:02:14;99021.16;;;1.50;87.18
34674;BME280;20879;55.668;37.858;2023-02-03T09:04:46;99023.59;;;1.39;87.75
34674;BME280;20879;55.668;37.858;2023-02-03T09:07:16;99037.28;;;1.48;87.42
34674;BME280;20879;55.668;37.858;2023-02-03T09:09:45;99037.34;;;1.52;87.74
34674;BME280;20879;55.668;37.858;2023-02-03T09:12:19;99016.75;;;1.35;87.82
34674;BME280;20879;55.668;37.858;2023-02-03T09:14:48;99045.88;;;1.56;87.85
34674;BME280;20879;55.668;37.858;2023-02-03T09:17:20;99038.28;;;1.64;88.01
34674;BME280;20879;55.668;37.858;2023-02-03T09:19:49;99048.59;;;1.71;87.65
34674;BME280;20879;55.668;37.858;2023-02-03T09:22:19;99041.78;;;1.72;87.55
34674;BME280;20879;55.668;37.858;2023-02-03T09:24:53;99032.44;;;1.75;87.05
34674;BME280;20879;55.668;37.858;2023-02-03T09:27:22;99047.75;;;1.72;87.23
34674;BME280;20879;55.668;37.858;2023-02-03T09:29:52;99033.22;;;1.67;87.27
34674;BME280;20879;55.668;37.858;2023-02-03T09:32:23;99031.31;;;1.44;87.41
34674;BME280;20879;55.668;37.858;2023-02-03T09:34:59;99035.47;;;1.37;88.23
34674;BME280;20879;55.668;37.858;2023-02-03T09:37:29;99032.91;;;1.36;89.62
34674;BME280;20879;55.668;37.858;2023-02-03T09:40:05;99027.03;;;1.45;89.74
34674;BME280;20879;55.668;37.858;2023-02-03T09:42:58;99006.63;;;1.45;90.96
34674;BME280;20879;55.668;37.858;2023-02-03T09:45:31;99021.34;;;1.67;90.68
34674;BME280;20879;55.668;37.858;2023-02-03T09:48:13;99031.81;;;2.00;91.19
34674;BME280;20879;55.668;37.858;2023-02-03T09:50:45;99024.25;;;2.14;90.36
34674;BME280;20879;55.668;37.858;2023-02-03T09:53:24;99029.53;;;2.35;90.25
34674;BME280;20879;55.668;37.858;2023-02-03T09:55:57;99027.81;;;2.34;89.71
34674;BME280;20879;55.668;37.858;2023-02-03T09:58:32;99023.59;;;2.38;89.52
34674;BME280;20879;55.668;37.858;2023-02-03T10:01:03;99028.75;;;2.44;89.09
34674;BME280;20879;55.668;37.858;2023-02-03T10:03:46;99010.81;;;2.35;88.98
34674;BME280;20879;55.668;37.858;2023-02-03T10:06:30;99021.09;;;2.49;88.60
34674;BME280;20879;55.668;37.858;2023-02-03T10:09:16;99018.63;;;2.61;88.96
34674;BME280;20879;55.668;37.858;2023-02-03T10:11:59;99013.53;;;2.62;88.30
34674;BME280;20879;55.668;37.858;2023-02-03T10:14:42;99011.84;;;2.66;87.85
34674;BME280;20879;55.668;37.858;2023-02-03T10:17:24;98994.72;;;2.50;87.46
34674;BME280;20879;55.668;37.858;2023-02-03T10:20:02;99016.94;;;2.65;86.75
34674;BME280;20879;55.668;37.858;2023-02-03T10:22:36;99016.16;;;2.76;86.63
34674;BME280;20879;55.668;37.858;2023-02-03T10:25:16;99025.59;;;2.91;86.27
34674;BME280;20879;55.668;37.858;2023-02-03T10:27:50;99023.09;;;3.02;85.31
34674;BME280;20879;55.668;37.858;2023-02-03T10:30:22;99019.56;;;2.74;85.54
34674;BME280;20879;55.668;37.858;2023-02-03T10:32:53;99018.66;;;2.69;85.73
34674;BME280;20879;55.668;37.858;2023-02-03T10:35:25;99026.44;;;2.86;84.90
34674;BME280;20879;55.668;37.858;2023-02-03T10:37:56;99018.66;;;2.69;85.35
34674;BME280;20879;55.668;37.858;2023-02-03T10:40:27;99021.16;;;2.55;85.35
34674;BME280;20879;55.668;37.858;2023-02-03T10:42:57;99011.75;;;2.51;85.33
34674;BME280;20879;55.668;37.858;2023-02-03T10:45:40;99011.66;;;2.37;85.58
34674;BME280;20879;55.668;37.858;2023-02-03T10:48:12;99009.13;;;2.40;85.62
34674;BME280;20879;55.668;37.858;2023-02-03T10:50:47;99014.31;;;2.48;85.33
34674;BME280;20879;55.668;37.858;2023-02-03T10:53:24;99012.63;;;2.53;85.01
34674;BME280;20879;55.668;37.858;2023-02-03T10:56:03;99009.22;;;2.55;84.53
34674;BME280;20879;55.668;37.858;2023-02-03T10:58:33;99011.81;;;2.63;84.60
34674;BME280;20879;55.668;37.858;2023-02-03T11:01:16;98990.50;;;2.55;83.92
34674;BME280;20879;55.668;37.858;2023-02-03T11:03:55;99008.47;;;2.73;83.57
34674;BME280;20879;55.668;37.858;2023-02-03T11:06:28;99009.34;;;2.75;83.90
34674;BME280;20879;55.668;37.858;2023-02-03T11:09:21;99001.69;;;2.83;83.01
34674;BME280;20879;55.668;37.858;2023-02-03T11:12:09;98999.16;;;2.85;82.53
34674;BME280;20879;55.668;37.858;2023-02-03T11:14:41;98995.75;;;2.86;83.25
34674;BME280;20879;55.668;37.858;2023-02-03T11:17:15;99003.44;;;2.86;83.00
34674;BME280;20879;55.668;37.858;2023-02-03T11:19:46;98998.31;;;2.89;83.01
34674;BME280;20879;55.668;37.858;2023-02-03T11:22:28;99005.19;;;3.05;82.06
34674;BME280;20879;55.668;37.858;2023-02-03T11:24:58;98996.72;;;3.26;82.40
34674;BME280;20879;55.668;37.858;2023-02-03T11:27:30;98997.56;;;3.18;82.03
34674;BME280;20879;55.668;37.858;2023-02-03T11:30:12;99001.84;;;3.23;80.73
34674;BME280;20879;55.668;37.858;2023-02-03T11:32:42;99003.56;;;3.32;80.01
34674;BME280;20879;55.668;37.858;2023-02-03T11:35:16;98997.56;;;3.18;81.11
34674;BME280;20879;55.668;37.858;2023-02-03T11:37:53;98983.84;;;2.98;80.53
34674;BME280;20879;55.668;37.858;2023-02-03T11:40:24;98972.69;;;2.79;80.62
34674;BME280;20879;55.668;37.858;2023-02-03T11:43:03;99002.63;;;2.96;80.34
34674;BME280;20879;55.668;37.858;2023-02-03T11:45:37;99006.88;;;2.97;80.56
34674;BME280;20879;55.668;37.858;2023-02-03T11:48:25;99005.09;;;2.84;79.75
34674;BME280;20879;55.668;37.858;2023-02-03T11:51:03;98947.81;;;2.43;81.05
34674;BME280;20879;55.668;37.858;2023-02-03T11:53:51;99001.69;;;2.77;80.61
34674;BME280;20879;55.668;37.858;2023-02-03T11:56:31;98995.69;;;2.73;81.13
34674;BME280;20879;55.668;37.858;2023-02-03T11:59:28;98977.66;;;2.50;81.05
34674;BME280;20879;55.668;37.858;2023-02-03T12:02:33;98987.97;;;2.66;80.98
34674;BME280;20879;55.668;37.858;2023-02-03T12:05:26;98977.78;;;2.73;80.34
34674;BME280;20879;55.668;37.858;2023-02-03T12:08:09;98982.97;;;2.89;80.21
34674;BME280;20879;55.668;37.858;2023-02-03T12:10:56;98991.50;;;2.92;79.14
34674;BME280;20879;55.668;37.858;2023-02-03T12:13:54;98982.16;;;2.94;78.84
34674;BME280;20879;55.668;37.858;2023-02-03T12:16:57;98988.13;;;2.96;78.52
34674;BME280;20879;55.668;37.858;2023-02-03T12:19:41;98977.84;;;2.84;78.97
34674;BME280;20879;55.668;37.858;2023-02-03T12:22:20;98987.16;;;2.73;78.71
34674;BME280;20879;55.668;37.858;2023-02-03T12:24:59;98978.56;;;2.58;78.39
34674;BME280;20879;55.668;37.858;2023-02-03T12:27:41;98973.34;;;2.41;78.54
34674;BME280;20879;55.668;37.858;2023-02-03T12:30:14;98981.09;;;2.54;78.54
34674;BME280;20879;55.668;37.858;2023-02-03T12:32:51;98958.00;;;2.38;78.68
34674;BME280;20879;55.668;37.858;2023-02-03T12:35:25;98981.97;;;2.56;78.49
34674;BME280;20879;55.668;37.858;2023-02-03T12:38:02;98985.38;;;2.55;77.70
34674;BME280;20879;55.668;37.858;2023-02-03T12:40:35;98978.53;;;2.48;77.96
34674;BME280;20879;55.668;37.858;2023-02-03T12:43:23;98972.53;;;2.47;77.46
34674;BME280;20879;55.668;37.858;2023-02-03T12:45:59;98978.53;;;2.46;78.19
34674;BME280;20879;55.668;37.858;2023-02-03T12:53:47;98981.63;;;2.03;77.41
34674;BME280;20879;55.668;37.858;2023-02-03T12:56:24;98979.81;;;1.87;78.62
34674;BME280;20879;55.668;37.858;2023-02-03T12:58:59;98972.09;;;1.79;78.83
34674;BME280;20879;55.668;37.858;2023-02-03T13:01:40;98972.16;;;1.87;79.79
34674;BME280;20879;55.668;37.858;2023-02-03T13:04:20;98975.50;;;1.84;79.86
34674;BME280;20879;55.668;37.858;2023-02-03T13:07:05;98981.50;;;1.86;80.30
34674;BME280;20879;55.668;37.858;2023-02-03T13:09:48;98937.91;;;1.63;80.46
34674;BME280;20879;55.668;37.858;2023-02-03T13:12:27;98983.25;;;1.89;80.56
34674;BME280;20879;55.668;37.858;2023-02-03T13:15:05;98979.81;;;1.90;80.43
34674;BME280;20879;55.668;37.858;2023-02-03T13:17:45;98982.34;;;1.85;80.93
34674;BME280;20879;55.668;37.858;2023-02-03T13:20:19;98962.63;;;1.67;80.77
34674;BME280;20879;55.668;37.858;2023-02-03T13:22:50;98983.13;;;1.77;80.96
34674;BME280;20879;55.668;37.858;2023-02-03T13:25:24;98984.81;;;1.74;81.91
34674;BME280;20879;55.668;37.858;2023-02-03T13:28:11;98986.47;;;1.72;82.57
34674;BME280;20879;55.668;37.858;2023-02-03T13:31:07;98981.38;;;1.72;82.54
34674;BME280;20879;55.668;37.858;2023-02-03T13:33:58;98971.94;;;1.64;83.20
34674;BME280;20879;55.668;37.858;2023-02-03T13:36:51;98978.72;;;1.57;83.48
34674;BME280;20879;55.668;37.858;2023-02-03T13:39:45;98970.16;;;1.53;83.69
34674;BME280;20879;55.668;37.858;2023-02-03T13:42:24;98975.22;;;1.49;83.55